Camp Atterbury, Indiana
Current Conditions -  °F | °C
As of 11:45 AM on Friday 24 Oct 2014 (Local Time) from KBAK Reporting Station
Clear Clear  
Wind Chill: 57°   Ceiling: Unl
Heat Index: 57°   Visibility: 10mi
Dew Point: 46°   Wind: 7mph
Humidity: 67%   Direction: 180°S
Pressure: 30.12"   Gusts: NA
Location:  39.3642°N, 85.9645°W
Report Text: KBAK 241545Z 18006KT 10SM SKC 14/08 A3012
Loading
Personal Weather Stations






























Interactive Weather Map
Tropical Storm Tracking
New forecast layout! Learn more

10-Day Weather Forecast

Advertisements
Track Severe Weather on mobile